createdAt,value
2018-11-21T09:35:17.656Z,937.25
2018-11-21T09:36:17.885Z,937.31
2018-11-21T09:37:17.487Z,937.32
2018-11-21T09:38:17.505Z,937.31
2018-11-21T09:39:17.528Z,937.29
2018-11-21T09:40:17.632Z,937.30
2018-11-21T09:41:18.143Z,937.27
2018-11-21T09:42:17.563Z,937.30
2018-11-21T09:43:17.582Z,937.30
2018-11-21T09:44:17.612Z,937.26
2018-11-21T09:45:17.817Z,937.30
2018-11-21T09:46:17.613Z,937.28
2018-11-21T09:47:17.653Z,937.26
2018-11-21T09:48:17.651Z,937.29
2018-11-21T09:49:17.679Z,937.33
2018-11-21T09:50:17.996Z,937.33
2018-11-21T09:51:17.712Z,937.34
2018-11-21T09:52:18.131Z,937.33
2018-11-21T09:53:17.744Z,937.31
2018-11-21T09:54:17.757Z,937.27
2018-11-21T09:55:18.222Z,937.27
2018-11-21T09:56:17.792Z,937.29
2018-11-21T09:57:17.809Z,937.29
2018-11-21T09:58:17.955Z,937.32
2018-11-21T09:59:17.843Z,937.32
2018-11-21T10:00:17.859Z,937.30
2018-11-21T10:01:18.318Z,937.32
2018-11-21T10:02:18.492Z,937.32
2018-11-21T10:03:17.907Z,937.33
2018-11-21T10:04:18.126Z,937.31
2018-11-21T10:05:17.933Z,937.32
2018-11-21T10:06:18.057Z,937.34
2018-11-21T10:07:17.968Z,937.35
2018-11-21T10:08:18.588Z,937.36
2018-11-21T10:09:18.000Z,937.36
2018-11-21T10:10:18.215Z,937.34
2018-11-21T10:11:18.287Z,937.35
2018-11-21T10:12:18.053Z,937.39
2018-11-21T10:13:18.072Z,937.40
2018-11-21T10:14:18.083Z,937.36
2018-11-21T10:15:18.096Z,937.39
2018-11-21T10:16:19.371Z,937.39
2018-11-21T10:17:18.332Z,937.34
2018-11-21T10:18:18.145Z,937.32
2018-11-21T10:19:18.365Z,937.31
2018-11-21T10:20:18.180Z,937.27
2018-11-21T10:21:18.495Z,937.23
2018-11-21T10:22:18.412Z,937.24
2018-11-21T10:23:18.247Z,937.25
2018-11-21T10:24:19.660Z,937.28
2018-11-21T10:25:18.460Z,937.29
2018-11-21T10:26:18.376Z,937.32
2018-11-21T10:27:18.287Z,937.30
2018-11-21T10:28:18.694Z,937.33
2018-11-21T10:29:18.717Z,937.35
2018-11-21T10:30:18.337Z,937.35
2018-11-21T10:31:18.810Z,937.39
2018-11-21T10:32:18.358Z,937.38
2018-11-21T10:33:18.593Z,937.47
2018-11-21T10:34:19.015Z,937.45
2018-11-21T10:35:18.421Z,937.47
2018-11-21T10:36:18.704Z,937.48
2018-11-21T10:37:18.437Z,937.46
2018-11-21T10:38:18.464Z,937.49
2018-11-21T10:39:18.481Z,937.46
2018-11-21T10:40:18.882Z,937.47
2018-11-21T10:41:18.823Z,937.42
2018-11-21T10:42:18.525Z,937.44
2018-11-21T10:43:18.544Z,937.44
2018-11-21T10:44:18.568Z,937.39
2018-11-21T10:45:18.579Z,937.40
2018-11-21T10:46:18.702Z,937.37
2018-11-21T10:47:18.601Z,937.38
2018-11-21T10:48:18.623Z,937.34
2018-11-21T10:49:18.845Z,937.35
2018-11-21T10:50:19.464Z,937.33
2018-11-21T10:51:18.781Z,937.36
2018-11-21T10:52:18.689Z,937.39
2018-11-21T10:53:18.703Z,937.45
2018-11-21T10:54:18.719Z,937.48
2018-11-21T10:55:18.739Z,937.46
2018-11-21T10:56:18.854Z,937.46
2018-11-21T10:57:18.767Z,937.49
2018-11-21T10:58:18.792Z,937.50
2018-11-21T10:59:18.802Z,937.46
2018-11-21T11:00:18.807Z,937.46
2018-11-21T11:01:18.946Z,937.44
2018-11-21T11:02:18.853Z,937.45
2018-11-21T11:03:18.871Z,937.44
2018-11-21T11:04:18.885Z,937.45
2018-11-21T11:05:18.904Z,937.43
2018-11-21T11:06:18.999Z,937.42
2018-11-21T11:07:18.931Z,937.46
2018-11-21T11:08:18.933Z,937.42
2018-11-21T11:09:18.957Z,937.45
2018-11-21T11:10:18.979Z,937.45
2018-11-21T11:11:19.093Z,937.52
2018-11-21T11:12:19.398Z,937.50
2018-11-21T11:13:19.028Z,937.51
2018-11-21T11:14:19.045Z,937.56
2018-11-21T11:15:19.045Z,937.56
2018-11-21T11:16:19.366Z,937.59
2018-11-21T11:17:19.093Z,937.58
2018-11-21T11:18:19.111Z,937.59
2018-11-21T11:19:19.128Z,937.58
2018-11-21T11:20:19.137Z,937.67
2018-11-21T11:21:19.414Z,937.60
2018-11-21T11:22:19.175Z,937.61
2018-11-21T11:23:19.175Z,937.66
2018-11-21T11:24:19.192Z,937.67
2018-11-21T11:25:19.218Z,937.67
2018-11-21T11:26:19.339Z,937.64
2018-11-21T11:27:19.251Z,937.61
2018-11-21T11:28:19.262Z,937.62
2018-11-21T11:29:19.271Z,937.62
2018-11-21T11:30:19.301Z,937.62
2018-11-21T11:31:19.407Z,937.69
2018-11-21T11:32:19.339Z,937.68
2018-11-21T11:33:19.350Z,937.68
2018-11-21T11:34:19.353Z,937.68
2018-11-21T11:35:19.382Z,937.66
2018-11-21T11:36:19.655Z,937.72
2018-11-21T11:37:19.399Z,937.69
2018-11-21T11:38:19.422Z,937.70
2018-11-21T11:39:19.444Z,937.71
2018-11-21T11:40:19.452Z,937.71
2018-11-21T11:41:19.727Z,937.69
2018-11-21T11:42:19.494Z,937.70
2018-11-21T11:43:19.517Z,937.71
2018-11-21T11:44:19.526Z,937.78
2018-11-21T11:45:19.539Z,937.78
2018-11-21T11:46:19.765Z,937.79
2018-11-21T11:47:19.581Z,937.81
2018-11-21T11:48:19.592Z,937.82
2018-11-21T11:49:19.603Z,937.80
2018-11-21T11:50:19.621Z,937.79
2018-11-21T11:51:19.739Z,937.75
2018-11-21T11:52:19.655Z,937.73
2018-11-21T11:53:19.675Z,937.72
2018-11-21T11:54:19.685Z,937.72
2018-11-21T11:55:19.704Z,937.72
2018-11-21T11:56:19.800Z,937.70
2018-11-21T11:57:19.734Z,937.70
2018-11-21T11:58:19.758Z,937.73
2018-11-21T11:59:19.768Z,937.70
2018-11-21T12:00:19.788Z,937.71
2018-11-21T12:01:19.903Z,937.73
2018-11-21T12:02:19.822Z,937.74
2018-11-21T12:03:19.829Z,937.74
2018-11-21T12:04:19.846Z,937.73
2018-11-21T12:05:19.860Z,937.70
2018-11-21T12:06:20.116Z,937.71
2018-11-21T12:07:19.885Z,937.72
2018-11-21T12:08:19.912Z,937.70
2018-11-21T12:09:19.926Z,937.73
2018-11-21T12:10:19.940Z,937.70
2018-11-21T12:11:20.212Z,937.67
2018-11-21T12:12:19.975Z,937.70
2018-11-21T12:13:19.977Z,937.68
2018-11-21T12:14:20.007Z,937.68
2018-11-21T12:15:20.024Z,937.69
2018-11-21T12:16:20.141Z,937.70
2018-11-21T12:17:20.053Z,937.68
2018-11-21T12:18:20.071Z,937.64
2018-11-21T12:19:20.091Z,937.64
2018-11-21T12:20:20.092Z,937.66
2018-11-21T12:21:20.223Z,937.67
2018-11-21T12:22:20.154Z,937.65
2018-11-21T12:23:20.139Z,937.63
2018-11-21T12:24:20.174Z,937.62
2018-11-21T12:25:20.189Z,937.64
2018-11-21T12:26:20.494Z,937.67
2018-11-21T12:27:20.221Z,937.66
2018-11-21T12:28:20.229Z,937.67
2018-11-21T12:29:20.255Z,937.64
2018-11-21T12:30:20.265Z,937.63
2018-11-21T12:31:20.383Z,937.64
2018-11-21T12:32:20.306Z,937.62
2018-11-21T12:33:20.318Z,937.60
2018-11-21T12:34:20.314Z,937.57
2018-11-21T12:35:20.352Z,937.54
2018-11-21T12:36:20.616Z,937.53
2018-11-21T12:37:20.363Z,937.57
2018-11-21T12:38:20.377Z,937.56
2018-11-21T12:39:20.395Z,937.54
2018-11-21T12:40:20.429Z,937.57
2018-11-21T12:41:20.643Z,937.53
2018-11-21T12:42:20.463Z,937.53
2018-11-21T12:43:20.480Z,937.54
2018-11-21T12:44:20.494Z,937.57
2018-11-21T12:45:20.519Z,937.61
2018-11-21T12:46:20.620Z,937.57
2018-11-21T12:47:20.544Z,937.62
2018-11-21T12:48:20.569Z,937.62
2018-11-21T12:49:20.586Z,937.59
2018-11-21T12:50:20.586Z,937.56
2018-11-21T12:51:20.856Z,937.56
2018-11-21T12:52:20.628Z,937.56
2018-11-21T12:53:20.801Z,937.58
2018-11-21T12:54:20.656Z,937.56
2018-11-21T12:55:20.669Z,937.59
2018-11-21T12:56:20.691Z,937.58
2018-11-21T12:57:20.804Z,937.62
2018-11-21T12:58:20.939Z,937.63
2018-11-21T12:59:20.735Z,937.66
2018-11-21T13:00:20.756Z,937.63
2018-11-21T13:01:20.772Z,937.64
2018-11-21T13:02:20.890Z,937.67
2018-11-21T13:03:20.802Z,937.59
2018-11-21T13:04:20.818Z,937.57
2018-11-21T13:05:20.825Z,937.57
2018-11-21T13:06:20.844Z,937.52
2018-11-21T13:07:21.113Z,937.48
2018-11-21T13:08:20.883Z,937.51
2018-11-21T13:09:20.901Z,937.51
2018-11-21T13:10:20.922Z,937.48
2018-11-21T13:11:20.937Z,937.50
2018-11-21T13:12:21.205Z,937.48
2018-11-21T13:13:20.954Z,937.45
2018-11-21T13:14:20.986Z,937.42
2018-11-21T13:15:21.003Z,937.44
2018-11-21T13:16:21.023Z,937.43
2018-11-21T13:17:21.270Z,937.46
2018-11-21T13:18:21.048Z,937.46
2018-11-21T13:19:21.061Z,937.45
2018-11-21T13:20:21.078Z,937.52
2018-11-21T13:21:21.106Z,937.49
2018-11-21T13:22:21.362Z,937.47
2018-11-21T13:23:21.131Z,937.53
2018-11-21T13:24:21.150Z,937.52
2018-11-21T13:25:21.147Z,937.47
2018-11-21T13:26:21.172Z,937.48
2018-11-21T13:27:21.447Z,937.44
2018-11-21T13:28:21.208Z,937.47
2018-11-21T13:29:21.226Z,937.46
2018-11-21T13:30:21.247Z,937.44
2018-11-21T13:31:21.256Z,937.45
2018-11-21T13:32:21.529Z,937.44
2018-11-21T13:33:21.403Z,937.46
2018-11-21T13:34:21.310Z,937.44
2018-11-21T13:35:21.324Z,937.45
2018-11-21T13:36:21.529Z,937.47
2018-11-21T13:37:21.461Z,937.46
2018-11-21T13:38:23.412Z,937.45
2018-11-21T13:39:21.389Z,937.45
2018-11-21T13:40:21.409Z,937.41
2018-11-21T13:41:21.426Z,937.40
2018-11-21T13:42:21.547Z,937.37
2018-11-21T13:43:21.456Z,937.41
2018-11-21T13:44:21.471Z,937.35
2018-11-21T13:45:21.492Z,937.34
2018-11-21T13:46:21.506Z,937.38
2018-11-21T13:47:21.523Z,937.34
2018-11-21T13:48:21.637Z,937.32
2018-11-21T13:49:21.556Z,937.33
2018-11-21T13:50:21.568Z,937.31
2018-11-21T13:51:21.584Z,937.29
2018-11-21T13:52:21.608Z,937.28
2018-11-21T13:53:21.723Z,937.26
2018-11-21T13:54:21.633Z,937.28
2018-11-21T13:55:21.657Z,937.28
2018-11-21T13:56:21.675Z,937.27
2018-11-21T13:57:21.678Z,937.25
2018-11-21T13:58:22.004Z,937.23
2018-11-21T13:59:21.725Z,937.21
2018-11-21T14:00:21.737Z,937.24
2018-11-21T14:01:21.964Z,937.21
2018-11-21T14:02:21.772Z,937.16
2018-11-21T14:03:21.789Z,937.14
2018-11-21T14:04:21.903Z,937.16
2018-11-21T14:05:21.823Z,937.14
2018-11-21T14:06:21.819Z,937.17
2018-11-21T14:07:21.848Z,937.12
2018-11-21T14:08:21.868Z,937.13
2018-11-21T14:09:21.981Z,937.15
2018-11-21T14:10:21.893Z,937.18
2018-11-21T14:11:21.928Z,937.13
2018-11-21T14:12:21.934Z,937.11
2018-11-21T14:13:21.950Z,937.12
2018-11-21T14:14:22.053Z,937.11
2018-11-21T14:15:22.058Z,937.08
2018-11-21T14:16:22.001Z,937.03
2018-11-21T14:17:27.553Z,937.10
2018-11-21T14:18:22.038Z,937.08
2018-11-21T14:19:22.154Z,937.06
2018-11-21T14:20:22.064Z,937.08
2018-11-21T14:21:22.087Z,937.08
2018-11-21T14:22:22.095Z,937.06
2018-11-21T14:23:22.116Z,937.04
2018-11-21T14:24:22.365Z,937.07
2018-11-21T14:25:22.152Z,937.02
2018-11-21T14:26:22.169Z,937.03
2018-11-21T14:27:22.168Z,936.99
2018-11-21T14:28:22.200Z,936.96
2018-11-21T14:29:22.449Z,936.93
2018-11-21T14:30:22.238Z,936.95
2018-11-21T14:31:22.247Z,936.95
2018-11-21T14:32:22.267Z,936.96
2018-11-21T14:33:22.280Z,936.95
2018-11-21T14:34:22.549Z,936.92
2018-11-21T14:35:22.294Z,936.94
2018-11-21T14:36:22.335Z,936.94
2018-11-21T14:37:22.350Z,936.89
2018-11-21T14:38:22.350Z,936.90
2018-11-21T14:39:22.484Z,936.93
2018-11-21T14:40:22.383Z,936.87
2018-11-21T14:41:22.400Z,936.92
2018-11-21T14:42:22.427Z,936.85
2018-11-21T14:43:22.434Z,936.86
2018-11-21T14:44:22.764Z,936.87
2018-11-21T14:45:22.461Z,936.89
2018-11-21T14:46:22.495Z,936.85
2018-11-21T14:47:22.517Z,936.83
2018-11-21T14:48:22.528Z,936.82
2018-11-21T14:49:22.653Z,936.82
2018-11-21T14:50:22.544Z,936.84
2018-11-21T14:51:22.585Z,936.82
2018-11-21T14:52:22.600Z,936.84
2018-11-21T14:53:22.610Z,936.79
2018-11-21T14:54:22.727Z,936.82
2018-11-21T14:55:22.646Z,936.85
2018-11-21T14:56:22.662Z,936.82
2018-11-21T14:57:22.677Z,936.80
2018-11-21T14:58:22.696Z,936.79
2018-11-21T14:59:22.955Z,936.79
2018-11-21T15:00:22.732Z,936.76
2018-11-21T15:01:22.747Z,936.76
2018-11-21T15:02:22.743Z,936.73
2018-11-21T15:03:22.783Z,936.70
2018-11-21T15:04:22.795Z,936.75
2018-11-21T15:05:22.912Z,936.75
2018-11-21T15:06:22.830Z,936.76
2018-11-21T15:07:22.827Z,936.77
2018-11-21T15:08:22.865Z,936.70
2018-11-21T15:09:22.882Z,936.69
2018-11-21T15:10:23.144Z,936.71
2018-11-21T15:11:22.915Z,936.69
2018-11-21T15:12:23.131Z,936.70
2018-11-21T15:13:22.946Z,936.67
2018-11-21T15:14:22.964Z,936.69
2018-11-21T15:15:23.073Z,936.72
2018-11-21T15:16:22.995Z,936.68
2018-11-21T15:17:23.002Z,936.71
2018-11-21T15:18:23.015Z,936.69
2018-11-21T15:19:23.037Z,936.69
2018-11-21T15:20:23.166Z,936.65
2018-11-21T15:21:23.082Z,936.67
2018-11-21T15:22:23.092Z,936.71
2018-11-21T15:23:23.096Z,936.68
2018-11-21T15:24:23.129Z,936.68
2018-11-21T15:25:23.242Z,936.69
2018-11-21T15:26:23.166Z,936.69
2018-11-21T15:27:23.165Z,936.71
2018-11-21T15:28:23.195Z,936.65
2018-11-21T15:29:23.415Z,936.65
2018-11-21T15:30:23.337Z,936.62
2018-11-21T15:31:23.250Z,936.66
2018-11-21T15:32:23.256Z,936.65
2018-11-21T15:33:24.082Z,936.65
2018-11-21T15:34:23.293Z,936.60
2018-11-21T15:35:23.412Z,936.60
2018-11-21T15:36:23.332Z,936.56
2018-11-21T15:37:23.343Z,936.58
2018-11-21T15:38:23.370Z,936.54
2018-11-21T15:39:23.583Z,936.55
2018-11-21T15:40:23.890Z,936.54
2018-11-21T15:41:23.615Z,936.55
2018-11-21T15:42:23.427Z,936.53
2018-11-21T15:43:23.444Z,936.49
2018-11-21T15:44:23.460Z,936.53
2018-11-21T15:45:23.481Z,936.48
2018-11-21T15:46:23.584Z,936.47
2018-11-21T15:47:23.519Z,936.50
2018-11-21T15:48:23.530Z,936.49
2018-11-21T15:49:23.549Z,936.47
2018-11-21T15:50:23.774Z,936.50
2018-11-21T15:51:23.683Z,936.53
2018-11-21T15:52:23.601Z,936.48
2018-11-21T15:53:23.615Z,936.49
2018-11-21T15:54:23.663Z,936.50
2018-11-21T15:55:23.646Z,936.54
2018-11-21T15:56:23.779Z,936.54
2018-11-21T15:57:23.680Z,936.50
2018-11-21T15:58:23.699Z,936.48
2018-11-21T15:59:23.718Z,936.48
2018-11-21T16:00:23.723Z,936.44
2018-11-21T16:01:23.832Z,936.44
2018-11-21T16:02:23.764Z,936.47
2018-11-21T16:03:23.787Z,936.39
2018-11-21T16:04:23.791Z,936.41
2018-11-21T16:05:23.804Z,936.41
2018-11-21T16:06:24.070Z,936.40
2018-11-21T16:07:23.849Z,936.39
2018-11-21T16:08:23.869Z,936.41
2018-11-21T16:09:23.874Z,936.38
2018-11-21T16:10:23.910Z,936.36
2018-11-21T16:11:24.167Z,936.36
2018-11-21T16:12:23.925Z,936.38
2018-11-21T16:13:23.948Z,936.35
2018-11-21T16:14:23.954Z,936.34
2018-11-21T16:15:24.010Z,936.30
2018-11-21T16:16:24.086Z,936.33
2018-11-21T16:17:24.020Z,936.32
2018-11-21T16:18:24.031Z,936.30
2018-11-21T16:19:24.049Z,936.30
2018-11-21T16:20:24.075Z,936.29
2018-11-21T16:21:24.186Z,936.24
2018-11-21T16:22:24.111Z,936.25
2018-11-21T16:23:24.120Z,936.22
2018-11-21T16:24:24.127Z,936.21
2018-11-21T16:25:24.154Z,936.25
2018-11-21T16:26:24.408Z,936.24
2018-11-21T16:27:24.187Z,936.21
2018-11-21T16:28:24.206Z,936.21
2018-11-21T16:29:24.205Z,936.18
2018-11-21T16:30:24.246Z,936.21
2018-11-21T16:31:24.503Z,936.20
2018-11-21T16:32:24.271Z,936.21
2018-11-21T16:33:24.289Z,936.18
2018-11-21T16:34:24.324Z,936.20
2018-11-21T16:35:24.324Z,936.14
2018-11-21T16:36:27.277Z,936.13
2018-11-21T16:37:24.363Z,936.07
2018-11-21T16:38:24.379Z,936.10
2018-11-21T16:39:24.371Z,936.05
2018-11-21T16:40:24.397Z,936.07
2018-11-21T16:41:24.526Z,936.00
2018-11-21T16:42:24.444Z,936.04
2018-11-21T16:43:24.457Z,935.98
2018-11-21T16:44:24.477Z,935.98
2018-11-21T16:45:24.488Z,935.95
2018-11-21T16:46:24.604Z,935.94
2018-11-21T16:47:24.518Z,935.97
2018-11-21T16:48:24.541Z,935.97
2018-11-21T16:49:24.559Z,935.96
2018-11-21T16:50:24.575Z,935.97
2018-11-21T16:51:24.892Z,935.94
2018-11-21T16:52:24.613Z,935.95
2018-11-21T16:53:24.628Z,935.89
2018-11-21T16:54:24.645Z,935.88
2018-11-21T16:55:24.646Z,935.90
2018-11-21T16:56:24.678Z,935.86
2018-11-21T16:57:24.793Z,935.90
2018-11-21T16:58:24.713Z,935.82
2018-11-21T16:59:24.729Z,935.81
2018-11-21T17:00:24.733Z,935.83
2018-11-21T17:01:24.758Z,935.81
2018-11-21T17:02:24.778Z,935.73
2018-11-21T17:03:25.045Z,935.74
2018-11-21T17:04:24.802Z,935.73
2018-11-21T17:05:24.817Z,935.75
2018-11-21T17:06:24.846Z,935.74
2018-11-21T17:07:26.022Z,935.72
2018-11-21T17:08:24.977Z,935.72
2018-11-21T17:09:24.894Z,935.73
2018-11-21T17:10:24.918Z,935.71
2018-11-21T17:11:24.933Z,935.73
2018-11-21T17:12:24.948Z,935.75
2018-11-21T17:13:25.219Z,935.72
2018-11-21T17:14:24.983Z,935.73
2018-11-21T17:15:24.998Z,935.75
2018-11-21T17:16:25.017Z,935.72
2018-11-21T17:17:25.034Z,935.73
2018-11-21T17:18:25.303Z,935.71
2018-11-21T17:19:25.067Z,935.70
2018-11-21T17:20:25.084Z,935.67
2018-11-21T17:21:25.100Z,935.69
2018-11-21T17:22:26.137Z,935.71
2018-11-21T17:23:25.239Z,935.65
2018-11-21T17:24:25.161Z,935.70
2018-11-21T17:25:25.170Z,935.67
2018-11-21T17:26:25.181Z,935.68
2018-11-21T17:27:25.204Z,935.66
2018-11-21T17:28:25.455Z,935.63
2018-11-21T17:29:25.234Z,935.59
2018-11-21T17:30:25.255Z,935.59
2018-11-21T17:31:25.268Z,935.59
2018-11-21T17:32:25.288Z,935.53
2018-11-21T17:33:25.558Z,935.58
2018-11-21T17:34:25.324Z,935.52
2018-11-21T17:35:25.343Z,935.53
2018-11-21T17:36:25.358Z,935.54
2018-11-21T17:37:25.377Z,935.51
2018-11-21T17:38:26.355Z,935.47
2018-11-21T17:39:25.410Z,935.49
2018-11-21T17:40:25.422Z,935.46
2018-11-21T17:41:25.438Z,935.47
2018-11-21T17:42:25.456Z,935.40
2018-11-21T17:43:25.575Z,935.39
2018-11-21T17:44:25.488Z,935.41
2018-11-21T17:45:25.509Z,935.39
2018-11-21T17:46:25.507Z,935.37
2018-11-21T17:47:25.537Z,935.35
2018-11-21T17:48:25.813Z,935.35
2018-11-21T17:49:25.559Z,935.34
2018-11-21T17:50:25.592Z,935.34
2018-11-21T17:51:26.704Z,935.31
2018-11-21T17:52:25.626Z,935.33
2018-11-21T17:53:25.651Z,935.29
2018-11-21T17:54:25.765Z,935.30
2018-11-21T17:55:25.671Z,935.30
2018-11-21T17:56:25.676Z,935.30
2018-11-21T17:57:27.979Z,935.30
2018-11-21T17:58:25.729Z,935.27
2018-11-21T17:59:25.999Z,935.25
2018-11-21T18:00:25.763Z,935.22
2018-11-21T18:01:25.777Z,935.26
2018-11-21T18:02:25.797Z,935.25
2018-11-21T18:03:25.811Z,935.23
2018-11-21T18:04:26.069Z,935.23
2018-11-21T18:05:25.831Z,935.20
2018-11-21T18:06:25.860Z,935.21
2018-11-21T18:07:25.869Z,935.20
2018-11-21T18:08:25.895Z,935.18
2018-11-21T18:09:26.158Z,935.16
2018-11-21T18:10:25.937Z,935.21
2018-11-21T18:11:25.952Z,935.18
2018-11-21T18:12:25.969Z,935.19
2018-11-21T18:13:25.981Z,935.16
2018-11-21T18:14:26.160Z,935.15
2018-11-21T18:15:26.012Z,935.08
2018-11-21T18:16:26.042Z,935.11
2018-11-21T18:17:26.052Z,935.12
2018-11-21T18:18:26.056Z,935.14
2018-11-21T18:19:26.191Z,935.14
2018-11-21T18:20:26.105Z,935.12
2018-11-21T18:21:26.122Z,935.09
2018-11-21T18:22:26.142Z,935.11
2018-11-21T18:23:26.158Z,935.08
2018-11-21T18:24:26.375Z,935.08
2018-11-21T18:25:26.176Z,935.06
2018-11-21T18:26:26.201Z,935.06
2018-11-21T18:27:26.220Z,935.07
2018-11-21T18:28:26.228Z,935.00
2018-11-21T18:29:26.359Z,934.97
2018-11-21T18:30:26.269Z,934.98
2018-11-21T18:31:26.293Z,934.96
2018-11-21T18:32:26.300Z,934.95
2018-11-21T18:33:26.332Z,934.94
2018-11-21T18:34:26.449Z,934.91
2018-11-21T18:35:26.359Z,934.89
2018-11-21T18:36:26.381Z,934.88
2018-11-21T18:37:26.392Z,934.88
2018-11-21T18:38:26.415Z,934.87
2018-11-21T18:39:26.519Z,934.88
2018-11-21T18:40:26.445Z,934.85
2018-11-21T18:41:26.463Z,934.86
2018-11-21T18:42:26.481Z,934.82
2018-11-21T18:43:26.491Z,934.81
2018-11-21T18:44:26.618Z,934.81
2018-11-21T18:45:26.525Z,934.78
2018-11-21T18:46:26.556Z,934.81
2018-11-21T18:47:26.564Z,934.79
2018-11-21T18:48:26.589Z,934.77
2018-11-21T18:49:26.832Z,934.73
2018-11-21T18:50:26.625Z,934.78
2018-11-21T18:51:26.637Z,934.76
2018-11-21T18:52:26.948Z,934.76
2018-11-21T18:53:26.665Z,934.72
2018-11-21T18:54:26.666Z,934.74
2018-11-21T18:55:26.802Z,934.71
2018-11-21T18:56:26.718Z,934.70
2018-11-21T18:57:26.720Z,934.72
2018-11-21T18:58:26.753Z,934.74
2018-11-21T18:59:26.770Z,934.73
2018-11-21T19:00:26.793Z,934.71
2018-11-21T19:01:27.053Z,934.66
2018-11-21T19:02:26.809Z,934.66
2018-11-21T19:03:26.848Z,934.62
2018-11-21T19:04:26.844Z,934.64
2018-11-21T19:05:27.068Z,934.64
2018-11-21T19:06:26.977Z,934.63
2018-11-21T19:07:26.909Z,934.61
2018-11-21T19:08:26.927Z,934.64
2018-11-21T19:09:26.939Z,934.60
2018-11-21T19:10:26.958Z,934.56
2018-11-21T19:12:27.236Z,934.57
2018-11-21T19:13:26.995Z,934.57
2018-11-21T19:14:27.028Z,934.57
2018-11-21T19:15:27.045Z,934.53
2018-11-21T19:16:27.059Z,934.53
2018-11-21T19:17:27.331Z,934.56
2018-11-21T19:18:27.099Z,934.55
2018-11-21T19:19:27.117Z,934.52
2018-11-21T19:20:27.137Z,934.54
2018-11-21T19:21:27.153Z,934.54
2018-11-21T19:22:27.262Z,934.49
2018-11-21T19:23:27.164Z,934.49
2018-11-21T19:24:27.198Z,934.47
2018-11-21T19:25:27.222Z,934.47
2018-11-21T19:26:27.230Z,934.47
2018-11-21T19:27:27.347Z,934.48
2018-11-21T19:28:27.253Z,934.48
2018-11-21T19:29:27.290Z,934.47
2018-11-21T19:30:27.296Z,934.48
2018-11-21T19:31:29.775Z,934.47
2018-11-21T19:32:27.420Z,934.48
2018-11-21T19:33:27.341Z,934.47
2018-11-21T19:34:27.372Z,934.48
2018-11-21T19:35:27.385Z,934.45
2018-11-21T19:36:27.411Z,934.51
2018-11-21T19:37:27.517Z,934.50
2018-11-21T19:38:27.442Z,934.47
2018-11-21T19:39:27.454Z,934.51
2018-11-21T19:40:27.471Z,934.49
2018-11-21T19:41:27.493Z,934.48
2018-11-21T19:42:27.757Z,934.47
2018-11-21T19:43:27.521Z,934.44
2018-11-21T19:44:27.544Z,934.42
2018-11-21T19:45:27.569Z,934.47
2018-11-21T19:46:27.565Z,934.48
2018-11-21T19:47:27.840Z,934.47
2018-11-21T19:48:27.608Z,934.44
2018-11-21T19:49:33.179Z,934.43
2018-11-21T19:50:27.669Z,934.46
2018-11-21T19:51:27.661Z,934.44
2018-11-21T19:52:27.676Z,934.44
2018-11-21T19:53:27.795Z,934.44
2018-11-21T19:54:27.708Z,934.40
2018-11-21T19:55:27.714Z,934.44
2018-11-21T19:56:27.747Z,934.43
2018-11-21T19:57:27.753Z,934.41
2018-11-21T19:58:27.772Z,934.38
2018-11-21T19:59:27.897Z,934.44
2018-11-21T20:00:27.817Z,934.42
2018-11-21T20:02:11.431Z,934.40
2018-11-21T20:03:11.457Z,934.46
2018-11-21T20:04:11.459Z,934.41
2018-11-21T20:05:11.738Z,934.43
2018-11-21T20:06:11.509Z,934.41
2018-11-21T20:07:11.510Z,934.41
2018-11-21T20:08:11.541Z,934.42
2018-11-21T20:09:11.611Z,934.41
2018-11-21T20:10:11.669Z,934.43
2018-11-21T20:11:11.592Z,934.46
2018-11-21T20:12:11.610Z,934.46
2018-11-21T20:13:11.720Z,934.44
2018-11-21T20:14:11.656Z,934.43
2018-11-21T20:15:11.765Z,934.47
2018-11-21T20:16:11.677Z,934.48
2018-11-21T20:17:11.695Z,934.51
2018-11-21T20:18:11.713Z,934.55
2018-11-21T20:19:11.731Z,934.51
2018-11-21T20:20:11.827Z,934.49
2018-11-21T20:21:11.812Z,934.50
2018-11-21T20:22:11.777Z,934.46
2018-11-21T20:23:11.794Z,934.47
2018-11-21T20:24:11.808Z,934.47
2018-11-21T20:25:12.031Z,934.52
2018-11-21T20:26:11.849Z,934.49
2018-11-21T20:27:11.877Z,934.49
2018-11-21T20:28:11.882Z,934.53
2018-11-21T20:29:11.898Z,934.56
2018-11-21T20:30:11.999Z,934.55
2018-11-21T20:31:11.946Z,934.56
2018-11-21T20:32:11.932Z,934.55
2018-11-21T20:33:11.955Z,934.56
2018-11-21T20:34:11.981Z,934.57
2018-11-21T20:35:12.255Z,934.53
2018-11-21T20:36:12.018Z,934.54
2018-11-21T20:37:12.039Z,934.53
2018-11-21T20:38:12.060Z,934.54
2018-11-21T20:39:12.055Z,934.54
2018-11-21T20:41:12.353Z,934.58
2018-11-21T20:42:12.109Z,934.56
2018-11-21T20:43:12.123Z,934.58
2018-11-21T20:44:12.160Z,934.60
2018-11-21T20:45:12.166Z,934.59
2018-11-21T20:46:12.444Z,934.59
2018-11-21T20:47:12.206Z,934.61
2018-11-21T20:48:12.226Z,934.59
2018-11-21T20:49:12.265Z,934.58
2018-11-21T20:50:12.255Z,934.59
2018-11-21T20:51:12.373Z,934.61
2018-11-21T20:52:12.283Z,934.60
2018-11-21T20:53:12.310Z,934.59
2018-11-21T20:54:12.327Z,934.59
2018-11-21T20:55:12.325Z,934.60
2018-11-21T20:56:12.559Z,934.63
2018-11-21T20:57:12.375Z,934.61
2018-11-21T20:58:12.384Z,934.61
2018-11-21T20:59:12.417Z,934.60
2018-11-21T21:00:12.430Z,934.62
2018-11-21T21:01:12.593Z,934.62
2018-11-21T21:02:12.460Z,934.61
2018-11-21T21:03:12.478Z,934.59
2018-11-21T21:04:12.493Z,934.64
2018-11-21T21:05:12.519Z,934.63
2018-11-21T21:06:12.784Z,934.64
2018-11-21T21:07:12.550Z,934.66
2018-11-21T21:08:12.563Z,934.64
2018-11-21T21:09:12.580Z,934.68
2018-11-21T21:10:12.600Z,934.63
2018-11-21T21:11:12.614Z,934.69
2018-11-21T21:12:12.729Z,934.67
2018-11-21T21:13:12.643Z,934.70
2018-11-21T21:14:12.650Z,934.71
2018-11-21T21:15:12.687Z,934.69
2018-11-21T21:16:12.706Z,934.77
2018-11-21T21:17:12.825Z,934.74
2018-11-21T21:18:12.737Z,934.74
2018-11-21T21:19:12.744Z,934.75
2018-11-21T21:20:12.766Z,934.78
2018-11-21T21:21:15.843Z,934.79
2018-11-21T21:22:18.420Z,934.81
2018-11-21T21:23:12.803Z,934.86
2018-11-21T21:24:12.845Z,934.82
2018-11-21T21:25:12.854Z,934.86
2018-11-21T21:26:12.870Z,934.85
2018-11-21T21:27:12.984Z,934.90
2018-11-21T21:28:12.903Z,934.89
2018-11-21T21:29:12.919Z,934.93
2018-11-21T21:30:12.945Z,934.91
2018-11-21T21:31:12.962Z,934.93
2018-11-21T21:32:13.075Z,934.94
2018-11-21T21:33:12.990Z,934.99
2018-11-21T21:34:13.009Z,935.00
2018-11-21T21:35:13.017Z,934.99
2018-11-21T21:36:13.040Z,934.98
2018-11-21T21:37:13.161Z,935.01
2018-11-21T21:38:13.072Z,935.02
2018-11-21T21:39:13.091Z,934.98
2018-11-21T21:40:13.107Z,934.99
2018-11-21T21:41:13.112Z,935.05
2018-11-21T21:42:13.239Z,935.10
2018-11-21T21:43:13.163Z,935.08
2018-11-21T21:44:13.181Z,935.07
2018-11-21T21:45:13.182Z,935.09
2018-11-21T21:46:13.214Z,935.11
2018-11-21T21:47:13.307Z,935.09
2018-11-21T21:48:13.242Z,935.08
2018-11-21T21:49:13.266Z,935.12
2018-11-21T21:50:13.277Z,935.08
2018-11-21T21:51:13.285Z,935.12
2018-11-21T21:52:13.548Z,935.16
2018-11-21T21:53:13.335Z,935.20
2018-11-21T21:54:13.349Z,935.22
2018-11-21T21:55:13.367Z,935.21
2018-11-21T21:56:13.380Z,935.19
2018-11-21T21:57:13.650Z,935.20
2018-11-21T21:58:13.416Z,935.25
2018-11-21T21:59:13.423Z,935.24
2018-11-21T22:00:13.449Z,935.27
2018-11-21T22:01:13.466Z,935.24
2018-11-21T22:02:13.580Z,935.27
2018-11-21T22:03:13.503Z,935.28
2018-11-21T22:04:13.512Z,935.24
2018-11-21T22:05:13.535Z,935.26
2018-11-21T22:06:13.548Z,935.27